createdAt,value
2018-07-14T00:00:59.524Z,1006.27
2018-07-14T00:01:59.504Z,1006.30
2018-07-14T00:02:59.558Z,1006.30
2018-07-14T00:03:59.484Z,1006.34
2018-07-14T00:04:59.462Z,1006.29
2018-07-14T00:05:59.445Z,1006.30
2018-07-14T00:06:59.466Z,1006.35
2018-07-14T00:07:59.409Z,1006.33
2018-07-14T00:08:59.439Z,1006.33
2018-07-14T00:09:59.414Z,1006.29
2018-07-14T00:10:59.364Z,1006.33
2018-07-14T00:11:59.350Z,1006.36
2018-07-14T00:12:59.337Z,1006.34
2018-07-14T00:13:59.322Z,1006.30
2018-07-14T00:14:59.302Z,1006.35
2018-07-14T00:15:59.287Z,1006.28
2018-07-14T00:16:59.272Z,1006.29
2018-07-14T00:17:59.260Z,1006.24
2018-07-14T00:18:59.240Z,1006.23
2018-07-14T00:19:59.220Z,1006.22
2018-07-14T00:20:59.209Z,1006.23
2018-07-14T00:21:59.193Z,1006.26
2018-07-14T00:22:59.178Z,1006.29
2018-07-14T00:23:59.154Z,1006.26
2018-07-14T00:24:59.146Z,1006.27
2018-07-14T00:25:59.134Z,1006.23
2018-07-14T00:26:59.117Z,1006.26
2018-07-14T00:27:59.124Z,1006.25
2018-07-14T00:28:59.076Z,1006.26
2018-07-14T00:29:59.061Z,1006.24
2018-07-14T00:30:59.050Z,1006.22
2018-07-14T00:31:59.032Z,1006.21
2018-07-14T00:32:59.022Z,1006.20
2018-07-14T00:33:59.001Z,1006.16
2018-07-14T00:34:58.983Z,1006.20
2018-07-14T00:35:58.961Z,1006.19
2018-07-14T00:36:59.732Z,1006.19
2018-07-14T00:37:58.936Z,1006.22
2018-07-14T00:38:58.978Z,1006.15
2018-07-14T00:39:58.921Z,1006.18
2018-07-14T00:40:58.883Z,1006.19
2018-07-14T00:41:58.887Z,1006.17
2018-07-14T00:42:58.871Z,1006.20
2018-07-14T00:43:58.883Z,1006.17
2018-07-14T00:44:58.835Z,1006.17
2018-07-14T00:47:31.937Z,1006.17
2018-07-14T00:48:31.890Z,1006.14
2018-07-14T00:49:31.870Z,1006.17
2018-07-14T00:50:31.855Z,1006.15
2018-07-14T00:51:31.843Z,1006.15
2018-07-14T00:52:31.827Z,1006.15
2018-07-14T00:53:31.816Z,1006.14
2018-07-14T00:54:31.793Z,1006.14
2018-07-14T00:55:31.819Z,1006.13
2018-07-14T00:56:31.760Z,1006.14
2018-07-14T00:57:31.748Z,1006.19
2018-07-14T00:58:31.725Z,1006.13
2018-07-14T00:59:31.713Z,1006.18
2018-07-14T01:00:31.728Z,1006.18
2018-07-14T01:01:31.689Z,1006.18
2018-07-14T01:02:31.686Z,1006.17
2018-07-14T01:03:31.647Z,1006.19
2018-07-14T01:04:31.626Z,1006.26
2018-07-14T01:05:31.645Z,1006.19
2018-07-14T01:06:31.599Z,1006.26
2018-07-14T01:07:31.604Z,1006.24
2018-07-14T01:08:31.581Z,1006.24
2018-07-14T01:09:31.585Z,1006.26
2018-07-14T01:10:31.537Z,1006.20
2018-07-14T01:11:31.512Z,1006.20
2018-07-14T01:12:31.501Z,1006.23
2018-07-14T01:13:31.481Z,1006.23
2018-07-14T01:14:31.470Z,1006.26
2018-07-14T01:15:31.451Z,1006.24
2018-07-14T01:16:31.435Z,1006.24
2018-07-14T01:17:31.418Z,1006.22
2018-07-14T01:18:31.401Z,1006.25
2018-07-14T01:19:31.388Z,1006.26
2018-07-14T01:20:31.366Z,1006.24
2018-07-14T01:21:31.378Z,1006.23
2018-07-14T01:22:31.337Z,1006.21
2018-07-14T01:23:31.316Z,1006.21
2018-07-14T01:24:31.307Z,1006.23
2018-07-14T01:25:31.285Z,1006.19
2018-07-14T01:26:31.271Z,1006.19
2018-07-14T01:27:31.256Z,1006.21
2018-07-14T01:28:31.240Z,1006.17
2018-07-14T01:29:31.219Z,1006.20
2018-07-14T01:30:31.203Z,1006.17
2018-07-14T01:31:31.187Z,1006.21
2018-07-14T01:32:31.169Z,1006.17
2018-07-14T01:33:31.152Z,1006.18
2018-07-14T01:34:31.146Z,1006.16
2018-07-14T01:35:31.123Z,1006.17
2018-07-14T01:36:31.110Z,1006.19
2018-07-14T01:37:31.096Z,1006.16
2018-07-14T01:38:31.074Z,1006.14
2018-07-14T01:39:31.055Z,1006.18
2018-07-14T01:40:31.109Z,1006.13
2018-07-14T01:41:31.045Z,1006.15
2018-07-14T01:42:31.002Z,1006.19
2018-07-14T01:43:30.988Z,1006.16
2018-07-14T01:44:30.972Z,1006.16
2018-07-14T01:45:30.956Z,1006.20
2018-07-14T01:46:30.934Z,1006.15
2018-07-14T01:47:30.919Z,1006.15
2018-07-14T01:48:30.912Z,1006.13
2018-07-14T01:49:30.893Z,1006.17
2018-07-14T01:50:30.874Z,1006.15
2018-07-14T01:51:30.855Z,1006.15
2018-07-14T01:52:30.837Z,1006.17
2018-07-14T01:53:30.823Z,1006.17
2018-07-14T01:54:30.806Z,1006.19
2018-07-14T01:55:30.787Z,1006.19
2018-07-14T01:56:30.768Z,1006.17
2018-07-14T01:57:30.763Z,1006.16
2018-07-14T01:58:30.746Z,1006.17
2018-07-14T01:59:30.720Z,1006.15
2018-07-14T02:00:30.704Z,1006.15
2018-07-14T02:01:30.689Z,1006.15
2018-07-14T02:02:30.673Z,1006.18
2018-07-14T02:03:30.653Z,1006.18
2018-07-14T02:04:30.637Z,1006.18
2018-07-14T02:05:30.630Z,1006.19
2018-07-14T02:06:30.608Z,1006.24
2018-07-14T02:07:30.591Z,1006.23
2018-07-14T02:08:30.570Z,1006.19
2018-07-14T02:09:30.563Z,1006.19
2018-07-14T02:10:30.536Z,1006.17
2018-07-14T02:11:30.530Z,1006.16
2018-07-14T02:12:30.500Z,1006.20
2018-07-14T02:13:30.486Z,1006.21
2018-07-14T02:14:30.472Z,1006.17
2018-07-14T02:15:30.456Z,1006.20
2018-07-14T02:16:30.441Z,1006.19
2018-07-14T02:17:30.429Z,1006.22
2018-07-14T02:18:30.410Z,1006.24
2018-07-14T02:19:30.383Z,1006.22
2018-07-14T02:20:30.372Z,1006.26
2018-07-14T02:21:30.348Z,1006.28
2018-07-14T02:22:30.337Z,1006.26
2018-07-14T02:23:30.320Z,1006.30
2018-07-14T02:24:30.309Z,1006.29
2018-07-14T02:25:30.281Z,1006.31
2018-07-14T02:26:30.314Z,1006.31
2018-07-14T02:27:30.321Z,1006.33
2018-07-14T02:28:30.258Z,1006.32
2018-07-14T02:29:30.219Z,1006.31
2018-07-14T02:30:30.198Z,1006.34
2018-07-14T02:31:30.185Z,1006.34
2018-07-14T02:32:30.164Z,1006.34
2018-07-14T02:33:30.149Z,1006.31
2018-07-14T02:34:30.134Z,1006.31
2018-07-14T02:35:30.118Z,1006.31
2018-07-14T02:36:30.102Z,1006.29
2018-07-14T02:37:30.098Z,1006.32
2018-07-14T02:38:30.071Z,1006.31
2018-07-14T02:39:30.047Z,1006.33
2018-07-14T02:40:30.050Z,1006.31
2018-07-14T02:41:30.015Z,1006.35
2018-07-14T02:42:29.998Z,1006.31
2018-07-14T02:43:29.981Z,1006.26
2018-07-14T02:44:29.966Z,1006.28
2018-07-14T02:45:29.987Z,1006.32
2018-07-14T02:46:29.926Z,1006.31
2018-07-14T02:47:29.911Z,1006.31
2018-07-14T02:48:29.892Z,1006.29
2018-07-14T02:49:29.882Z,1006.31
2018-07-14T02:50:29.868Z,1006.30
2018-07-14T02:51:29.843Z,1006.29
2018-07-14T02:52:29.827Z,1006.32
2018-07-14T02:53:29.813Z,1006.29
2018-07-14T02:54:29.798Z,1006.35
2018-07-14T02:55:29.772Z,1006.31
2018-07-14T02:56:29.759Z,1006.31
2018-07-14T02:57:29.742Z,1006.31
2018-07-14T02:58:29.726Z,1006.31
2018-07-14T02:59:29.752Z,1006.35
2018-07-14T03:00:29.689Z,1006.32
2018-07-14T03:01:29.679Z,1006.27
2018-07-14T03:02:29.708Z,1006.28
2018-07-14T03:03:29.661Z,1006.31
2018-07-14T03:04:29.622Z,1006.30
2018-07-14T03:05:29.605Z,1006.27
2018-07-14T03:06:29.597Z,1006.27
2018-07-14T03:07:29.567Z,1006.27
2018-07-14T03:08:29.550Z,1006.29
2018-07-14T03:09:29.534Z,1006.30
2018-07-14T03:10:29.555Z,1006.27
2018-07-14T03:11:29.523Z,1006.26
2018-07-14T03:12:29.523Z,1006.22
2018-07-14T03:13:29.473Z,1006.21
2018-07-14T03:14:29.463Z,1006.20
2018-07-14T03:15:29.434Z,1006.23
2018-07-14T03:16:29.463Z,1006.17
2018-07-14T03:17:29.395Z,1006.16
2018-07-14T03:18:29.385Z,1006.16
2018-07-14T03:19:29.394Z,1006.15
2018-07-14T03:20:29.344Z,1006.18
2018-07-14T03:21:29.324Z,1006.14
2018-07-14T03:22:29.320Z,1006.18
2018-07-14T03:23:29.295Z,1006.18
2018-07-14T03:24:29.290Z,1006.16
2018-07-14T03:25:29.265Z,1006.15
2018-07-14T03:26:29.244Z,1006.17
2018-07-14T03:27:29.229Z,1006.17
2018-07-14T03:28:29.216Z,1006.20
2018-07-14T03:29:29.194Z,1006.20
2018-07-14T03:30:29.177Z,1006.16
2018-07-14T03:31:29.161Z,1006.15
2018-07-14T03:32:29.141Z,1006.19
2018-07-14T03:33:30.012Z,1006.18
2018-07-14T03:34:29.106Z,1006.18
2018-07-14T03:35:29.099Z,1006.18
2018-07-14T03:36:29.082Z,1006.15
2018-07-14T03:37:29.053Z,1006.15
2018-07-14T03:38:29.039Z,1006.14
2018-07-14T03:39:29.020Z,1006.17
2018-07-14T03:40:29.002Z,1006.14
2018-07-14T03:41:28.987Z,1006.17
2018-07-14T03:42:28.982Z,1006.14
2018-07-14T03:43:28.958Z,1006.15
2018-07-14T03:44:28.933Z,1006.14
2018-07-14T03:45:28.913Z,1006.10
2018-07-14T03:46:28.892Z,1006.16
2018-07-14T03:47:28.878Z,1006.09
2018-07-14T03:48:28.864Z,1006.12
2018-07-14T03:49:28.844Z,1006.13
2018-07-14T03:50:28.834Z,1006.11
2018-07-14T03:51:28.845Z,1006.12
2018-07-14T03:52:28.792Z,1006.11
2018-07-14T03:53:28.782Z,1006.11
2018-07-14T03:54:28.759Z,1006.12
2018-07-14T03:55:28.743Z,1006.14
2018-07-14T03:56:28.726Z,1006.13
2018-07-14T03:57:28.723Z,1006.13
2018-07-14T03:58:28.702Z,1006.14
2018-07-14T03:59:28.682Z,1006.16
2018-07-14T04:00:28.654Z,1006.13
2018-07-14T04:01:28.635Z,1006.13
2018-07-14T04:02:28.620Z,1006.09
2018-07-14T04:03:28.602Z,1006.14
2018-07-14T04:04:28.585Z,1006.09
2018-07-14T04:05:28.572Z,1006.09
2018-07-14T04:06:28.569Z,1006.09
2018-07-14T04:07:28.568Z,1006.12
2018-07-14T04:08:28.545Z,1006.12
2018-07-14T04:09:28.495Z,1006.12
2018-07-14T04:10:28.477Z,1006.10
2018-07-14T04:11:28.485Z,1006.05
2018-07-14T04:12:28.458Z,1006.07
2018-07-14T04:13:28.430Z,1006.10
2018-07-14T04:14:28.415Z,1006.01
2018-07-14T04:15:29.022Z,1006.05
2018-07-14T04:16:28.377Z,1006.07
2018-07-14T04:17:28.356Z,1006.07
2018-07-14T04:18:28.341Z,1006.05
2018-07-14T04:19:28.322Z,1006.06
2018-07-14T04:20:28.320Z,1006.10
2018-07-14T04:21:29.021Z,1006.08
2018-07-14T04:22:28.272Z,1006.15
2018-07-14T04:23:28.254Z,1006.09
2018-07-14T04:24:28.239Z,1006.07
2018-07-14T04:25:28.220Z,1006.07
2018-07-14T04:26:28.200Z,1006.10
2018-07-14T04:27:28.186Z,1006.11
2018-07-14T04:28:28.168Z,1006.09
2018-07-14T04:29:28.150Z,1006.14
2018-07-14T04:30:28.129Z,1006.11
2018-07-14T04:31:28.111Z,1006.14
2018-07-14T04:32:28.098Z,1006.15
2018-07-14T04:33:28.082Z,1006.12
2018-07-14T04:34:28.061Z,1006.13
2018-07-14T04:35:28.046Z,1006.16
2018-07-14T04:36:28.029Z,1006.18
2018-07-14T04:37:28.016Z,1006.14
2018-07-14T04:38:28.022Z,1006.18
2018-07-14T04:39:27.988Z,1006.20
2018-07-14T04:40:27.954Z,1006.16
2018-07-14T04:41:27.941Z,1006.17
2018-07-14T04:42:27.987Z,1006.18
2018-07-14T04:43:27.901Z,1006.20
2018-07-14T04:44:27.897Z,1006.25
2018-07-14T04:45:27.873Z,1006.22
2018-07-14T04:46:27.853Z,1006.21
2018-07-14T04:47:27.843Z,1006.21
2018-07-14T04:48:27.820Z,1006.22
2018-07-14T04:49:27.823Z,1006.19
2018-07-14T04:50:27.786Z,1006.20
2018-07-14T04:51:27.773Z,1006.23
2018-07-14T04:52:27.748Z,1006.22
2018-07-14T04:53:27.736Z,1006.22
2018-07-14T04:54:27.716Z,1006.22
2018-07-14T04:55:27.728Z,1006.21
2018-07-14T04:56:27.679Z,1006.22
2018-07-14T04:57:27.678Z,1006.23
2018-07-14T04:58:27.648Z,1006.21
2018-07-14T04:59:27.636Z,1006.25
2018-07-14T05:00:27.611Z,1006.26
2018-07-14T05:01:27.598Z,1006.25
2018-07-14T05:02:27.590Z,1006.25
2018-07-14T05:03:27.562Z,1006.29
2018-07-14T05:04:27.547Z,1006.27
2018-07-14T05:05:27.530Z,1006.30
2018-07-14T05:06:27.527Z,1006.28
2018-07-14T05:07:27.498Z,1006.28
2018-07-14T05:08:27.478Z,1006.28
2018-07-14T05:09:27.458Z,1006.27
2018-07-14T05:10:28.036Z,1006.29
2018-07-14T05:11:27.426Z,1006.32
2018-07-14T05:12:27.411Z,1006.29
2018-07-14T05:13:27.389Z,1006.27
2018-07-14T05:14:27.383Z,1006.27
2018-07-14T05:15:27.359Z,1006.25
2018-07-14T05:16:27.337Z,1006.26
2018-07-14T05:17:27.370Z,1006.29
2018-07-14T05:18:27.314Z,1006.28
2018-07-14T05:19:27.289Z,1006.29
2018-07-14T05:20:27.277Z,1006.29
2018-07-14T05:21:27.316Z,1006.27
2018-07-14T05:22:27.235Z,1006.24
2018-07-14T05:23:27.225Z,1006.28
2018-07-14T05:24:27.202Z,1006.25
2018-07-14T05:25:27.184Z,1006.25
2018-07-14T05:26:27.168Z,1006.25
2018-07-14T05:27:27.151Z,1006.24
2018-07-14T05:28:27.193Z,1006.22
2018-07-14T05:29:27.122Z,1006.27
2018-07-14T05:30:27.105Z,1006.28
2018-07-14T05:31:27.093Z,1006.33
2018-07-14T05:32:27.106Z,1006.33
2018-07-14T05:33:27.075Z,1006.35
2018-07-14T05:34:27.036Z,1006.38
2018-07-14T05:35:27.014Z,1006.36
2018-07-14T05:36:27.004Z,1006.37
2018-07-14T05:37:26.995Z,1006.35
2018-07-14T05:38:26.967Z,1006.33
2018-07-14T05:39:26.960Z,1006.41
2018-07-14T05:40:26.932Z,1006.38
2018-07-14T05:41:26.917Z,1006.40
2018-07-14T05:42:26.901Z,1006.44
2018-07-14T05:43:26.884Z,1006.43
2018-07-14T05:44:26.869Z,1006.45
2018-07-14T05:45:26.849Z,1006.47
2018-07-14T05:46:26.846Z,1006.46
2018-07-14T05:47:26.817Z,1006.53
2018-07-14T05:48:26.799Z,1006.51
2018-07-14T05:49:26.809Z,1006.54
2018-07-14T05:50:26.789Z,1006.52
2018-07-14T05:51:26.750Z,1006.57
2018-07-14T05:52:26.733Z,1006.56
2018-07-14T05:53:26.718Z,1006.58
2018-07-14T05:54:26.699Z,1006.56
2018-07-14T05:55:26.686Z,1006.60
2018-07-14T05:56:26.668Z,1006.59
2018-07-14T05:57:26.654Z,1006.63
2018-07-14T05:58:26.647Z,1006.65
2018-07-14T05:59:27.546Z,1006.69
2018-07-14T06:00:26.602Z,1006.72
2018-07-14T06:01:26.626Z,1006.73
2018-07-14T06:02:26.573Z,1006.78
2018-07-14T06:03:26.577Z,1006.81
2018-07-14T06:04:26.538Z,1006.89
2018-07-14T06:05:26.527Z,1006.89
2018-07-14T06:06:26.515Z,1006.90
2018-07-14T06:07:26.500Z,1006.82
2018-07-14T06:08:26.490Z,1006.85
2018-07-14T06:09:26.468Z,1006.81
2018-07-14T06:10:26.449Z,1006.82
2018-07-14T06:11:26.439Z,1006.82
2018-07-14T06:12:26.441Z,1006.82
2018-07-14T06:13:26.461Z,1006.84
2018-07-14T06:14:26.445Z,1006.84
2018-07-14T06:15:26.417Z,1006.81
2018-07-14T06:16:26.384Z,1006.86
2018-07-14T06:17:26.363Z,1006.84
2018-07-14T06:18:26.377Z,1006.84
2018-07-14T06:19:26.345Z,1006.85
2018-07-14T06:20:26.366Z,1006.85
2018-07-14T06:21:26.334Z,1006.88
2018-07-14T06:22:26.298Z,1006.90
2018-07-14T06:23:26.313Z,1006.91
2018-07-14T06:24:26.270Z,1006.85
2018-07-14T06:25:26.260Z,1006.83
2018-07-14T06:26:26.245Z,1006.84
2018-07-14T06:27:26.235Z,1006.88
2018-07-14T06:28:26.231Z,1006.91
2018-07-14T06:29:26.215Z,1006.89
2018-07-14T06:30:26.207Z,1006.91
2018-07-14T06:31:26.206Z,1006.92
2018-07-14T06:32:26.180Z,1006.92
2018-07-14T06:33:26.168Z,1006.93
2018-07-14T06:34:26.176Z,1006.97
2018-07-14T06:35:26.169Z,1007.00
2018-07-14T06:36:26.137Z,1006.98
2018-07-14T06:37:26.147Z,1006.98
2018-07-14T06:38:26.203Z,1006.97
2018-07-14T06:39:26.106Z,1007.00
2018-07-14T06:40:26.161Z,1007.01
2018-07-14T06:41:28.060Z,1007.03
2018-07-14T06:42:26.079Z,1007.06
2018-07-14T06:43:26.064Z,1007.04
2018-07-14T06:44:26.062Z,1007.09
2018-07-14T06:45:26.046Z,1007.08
2018-07-14T06:46:26.065Z,1007.09
2018-07-14T06:47:26.028Z,1007.11
2018-07-14T06:48:26.019Z,1007.13
2018-07-14T06:49:26.010Z,1007.13
2018-07-14T06:50:26.013Z,1007.16
2018-07-14T06:51:25.991Z,1007.15
2018-07-14T06:52:26.007Z,1007.13
2018-07-14T06:53:25.995Z,1007.14
2018-07-14T06:54:25.973Z,1007.14
2018-07-14T06:55:25.954Z,1007.16
2018-07-14T06:56:25.951Z,1007.18
2018-07-14T06:57:25.964Z,1007.17
2018-07-14T06:58:25.927Z,1007.23
2018-07-14T06:59:25.926Z,1007.23
2018-07-14T07:00:25.910Z,1007.17
2018-07-14T07:01:25.898Z,1007.23
2018-07-14T07:02:25.890Z,1007.19
2018-07-14T07:03:25.919Z,1007.15
2018-07-14T07:04:25.912Z,1007.14
2018-07-14T07:05:25.869Z,1007.15
2018-07-14T07:06:25.857Z,1007.17
2018-07-14T07:07:25.868Z,1007.16
2018-07-14T07:08:25.841Z,1007.18
2018-07-14T07:09:25.844Z,1007.18
2018-07-14T07:10:25.831Z,1007.22
2018-07-14T07:11:25.826Z,1007.21
2018-07-14T07:12:25.809Z,1007.23
2018-07-14T07:13:25.811Z,1007.22
2018-07-14T07:14:25.795Z,1007.22
2018-07-14T07:15:25.817Z,1007.16
2018-07-14T07:16:25.789Z,1007.14
2018-07-14T07:17:25.777Z,1007.11
2018-07-14T07:18:25.762Z,1007.13
2018-07-14T07:19:25.760Z,1007.13
2018-07-14T07:20:25.767Z,1007.12
2018-07-14T07:21:25.805Z,1007.13
2018-07-14T07:22:25.769Z,1007.16
2018-07-14T07:23:25.735Z,1007.17
2018-07-14T07:24:25.720Z,1007.13
2018-07-14T07:25:25.716Z,1007.20
2018-07-14T07:26:25.704Z,1007.20
2018-07-14T07:27:25.723Z,1007.18
2018-07-14T07:28:25.692Z,1007.20
2018-07-14T07:29:25.724Z,1007.18
2018-07-14T07:30:25.690Z,1007.20
2018-07-14T07:31:25.665Z,1007.17
2018-07-14T07:32:25.664Z,1007.18
2018-07-14T07:33:25.650Z,1007.17
2018-07-14T07:34:25.660Z,1007.17
2018-07-14T07:35:25.642Z,1007.17
2018-07-14T07:36:25.655Z,1007.16
2018-07-14T07:37:25.623Z,1007.12
2018-07-14T07:38:25.640Z,1007.12
2018-07-14T07:39:25.595Z,1007.13
2018-07-14T07:40:25.590Z,1007.15
2018-07-14T07:41:25.584Z,1007.13
2018-07-14T07:42:25.655Z,1007.12
2018-07-14T07:43:25.572Z,1007.11
2018-07-14T07:44:25.577Z,1007.11
2018-07-14T07:45:25.549Z,1007.14
2018-07-14T07:46:25.617Z,1007.13
2018-07-14T07:47:25.881Z,1007.10
2018-07-14T07:48:25.523Z,1007.10
2018-07-14T07:49:25.503Z,1007.14
2018-07-14T07:50:25.489Z,1007.15
2018-07-14T07:51:25.490Z,1007.13
2018-07-14T07:52:25.472Z,1007.16
2018-07-14T07:53:25.535Z,1007.13
2018-07-14T07:54:25.481Z,1007.13
2018-07-14T07:55:25.446Z,1007.13
2018-07-14T07:56:25.435Z,1007.13
2018-07-14T07:57:25.417Z,1007.13
2018-07-14T07:58:25.404Z,1007.13
2018-07-14T07:59:25.510Z,1007.15
2018-07-14T08:00:25.396Z,1007.17
2018-07-14T08:01:25.372Z,1007.19
2018-07-14T08:02:25.361Z,1007.15
2018-07-14T08:03:25.354Z,1007.14
2018-07-14T08:04:25.341Z,1007.18
2018-07-14T08:05:25.330Z,1007.13
2018-07-14T08:07:47.416Z,1007.12
2018-07-14T08:08:47.468Z,1007.12
2018-07-14T08:10:51.830Z,1007.12
2018-07-14T08:11:42.304Z,1007.18
2018-07-14T08:12:41.750Z,1007.16
2018-07-14T08:13:41.751Z,1007.19
2018-07-14T08:14:41.789Z,1007.16
2018-07-14T08:15:41.923Z,1007.16
2018-07-14T08:16:41.706Z,1007.18
2018-07-14T08:17:41.667Z,1007.19
2018-07-14T08:18:41.682Z,1007.17
2018-07-14T08:19:41.665Z,1007.13
2018-07-14T08:20:41.647Z,1007.12
2018-07-14T08:21:41.624Z,1007.14
2018-07-14T08:22:41.619Z,1007.14
2018-07-14T08:23:41.606Z,1007.10
2018-07-14T08:24:41.595Z,1007.13
2018-07-14T08:25:41.583Z,1007.14
2018-07-14T08:26:41.661Z,1007.11
2018-07-14T08:27:41.571Z,1007.08
2018-07-14T08:28:41.551Z,1007.13
2018-07-14T08:29:41.544Z,1007.14
2018-07-14T08:30:41.524Z,1007.14
2018-07-14T08:31:41.607Z,1007.16
2018-07-14T08:32:41.573Z,1007.12
2018-07-14T08:33:41.485Z,1007.14
2018-07-14T08:34:41.496Z,1007.14
2018-07-14T08:35:41.474Z,1007.10
2018-07-14T08:36:41.455Z,1007.12
2018-07-14T08:37:41.442Z,1007.13
2018-07-14T08:38:41.436Z,1007.16
2018-07-14T08:39:41.437Z,1007.17
2018-07-14T08:40:41.405Z,1007.13
2018-07-14T08:41:41.412Z,1007.17
2018-07-14T08:42:41.388Z,1007.17
2018-07-14T08:43:41.407Z,1007.21
2018-07-14T08:44:41.366Z,1007.14
2018-07-14T08:45:41.352Z,1007.15
2018-07-14T08:46:41.348Z,1007.16
2018-07-14T08:47:41.354Z,1007.10
2018-07-14T08:48:41.405Z,1007.13
2018-07-14T08:49:41.333Z,1007.10
2018-07-14T08:50:41.296Z,1007.09
2018-07-14T08:51:41.311Z,1007.09
2018-07-14T08:52:41.276Z,1007.09
2018-07-14T08:53:41.280Z,1007.10
2018-07-14T08:54:41.255Z,1007.14
2018-07-14T08:55:41.236Z,1007.10
2018-07-14T08:56:41.236Z,1007.12
2018-07-14T08:57:41.216Z,1007.13
2018-07-14T08:58:41.207Z,1007.09
2018-07-14T08:59:41.206Z,1007.10
2018-07-14T09:00:41.181Z,1007.14
2018-07-14T09:01:41.172Z,1007.10
2018-07-14T09:02:41.174Z,1007.10
2018-07-14T09:03:41.329Z,1007.08
2018-07-14T09:04:41.143Z,1007.03
2018-07-14T09:05:41.129Z,1007.08
2018-07-14T09:06:41.115Z,1007.08
2018-07-14T09:07:41.111Z,1007.09
2018-07-14T09:08:41.103Z,1007.10
2018-07-14T09:09:41.084Z,1007.08
2018-07-14T09:10:41.072Z,1007.08
2018-07-14T09:11:41.077Z,1007.10
2018-07-14T09:12:41.062Z,1007.10
2018-07-14T09:13:41.056Z,1007.08
2018-07-14T09:14:41.042Z,1007.08
2018-07-14T09:15:41.020Z,1007.10
2018-07-14T09:16:41.009Z,1007.07
2018-07-14T09:17:40.996Z,1007.06
2018-07-14T09:18:40.991Z,1007.07
2018-07-14T09:19:40.974Z,1006.99
2018-07-14T09:20:40.960Z,1007.01
2018-07-14T09:21:40.950Z,1006.99
2018-07-14T09:22:40.940Z,1006.97
2018-07-14T09:23:40.931Z,1007.00
2018-07-14T09:24:40.919Z,1007.01
2018-07-14T09:25:40.904Z,1006.98
2018-07-14T09:26:40.907Z,1006.95
2018-07-14T09:27:40.884Z,1006.97
2018-07-14T09:28:40.882Z,1006.95
2018-07-14T09:29:40.857Z,1006.96
2018-07-14T09:30:40.864Z,1006.96
2018-07-14T09:31:40.951Z,1006.97
2018-07-14T09:32:40.913Z,1006.96
2018-07-14T09:33:40.856Z,1006.95
2018-07-14T09:34:40.804Z,1006.89
2018-07-14T09:35:40.793Z,1006.94
2018-07-14T09:36:40.785Z,1006.96
2018-07-14T09:37:40.775Z,1006.93
2018-07-14T09:38:40.766Z,1006.97
2018-07-14T09:39:40.766Z,1006.90
2018-07-14T09:40:40.800Z,1006.92
2018-07-14T09:41:40.772Z,1006.93
2018-07-14T09:42:40.727Z,1006.93
2018-07-14T09:43:40.711Z,1006.90
2018-07-14T09:44:40.759Z,1006.91
2018-07-14T09:45:40.686Z,1006.96
2018-07-14T09:46:40.678Z,1006.91
2018-07-14T09:47:40.670Z,1006.88
2018-07-14T09:48:40.659Z,1006.87
2018-07-14T09:49:40.668Z,1006.85
2018-07-14T09:50:40.637Z,1006.90
2018-07-14T09:51:40.621Z,1006.86
2018-07-14T09:52:40.625Z,1006.91
2018-07-14T09:53:40.644Z,1006.85
2018-07-14T09:54:40.609Z,1006.78
2018-07-14T09:55:40.592Z,1006.85
2018-07-14T09:56:40.666Z,1006.85
2018-07-14T09:57:40.583Z,1006.84
2018-07-14T09:58:40.572Z,1006.81
2018-07-14T09:59:40.543Z,1006.80
2018-07-14T10:00:40.555Z,1006.79
2018-07-14T10:01:40.516Z,1006.76
2018-07-14T10:02:40.505Z,1006.80
2018-07-14T10:03:40.512Z,1006.83
2018-07-14T10:04:40.478Z,1006.79
2018-07-14T10:05:40.472Z,1006.76
2018-07-14T10:06:40.470Z,1006.77
2018-07-14T10:07:40.471Z,1006.79
2018-07-14T10:08:40.453Z,1006.79
2018-07-14T10:09:40.433Z,1006.73
2018-07-14T10:10:40.415Z,1006.71
2018-07-14T10:11:40.410Z,1006.70
2018-07-14T10:12:40.393Z,1006.73
2018-07-14T10:13:40.386Z,1006.69
2018-07-14T10:14:40.386Z,1006.62
2018-07-14T10:15:40.367Z,1006.69
2018-07-14T10:16:40.350Z,1006.71
2018-07-14T10:17:40.360Z,1006.71
2018-07-14T10:18:40.336Z,1006.65
2018-07-14T10:19:40.321Z,1006.69
2018-07-14T10:20:40.313Z,1006.69
2018-07-14T10:21:40.304Z,1006.62
2018-07-14T10:22:40.286Z,1006.64
2018-07-14T10:23:40.276Z,1006.61
2018-07-14T10:24:40.269Z,1006.61
2018-07-14T10:25:40.359Z,1006.64
2018-07-14T10:26:40.251Z,1006.62
2018-07-14T10:27:40.237Z,1006.61
2018-07-14T10:28:40.226Z,1006.57
2018-07-14T10:29:40.343Z,1006.61
2018-07-14T10:30:40.210Z,1006.62
2018-07-14T10:31:40.206Z,1006.61
2018-07-14T10:32:40.187Z,1006.64
2018-07-14T10:33:40.297Z,1006.61
2018-07-14T10:34:40.168Z,1006.65
2018-07-14T10:35:40.182Z,1006.58
2018-07-14T10:36:40.143Z,1006.58
2018-07-14T10:37:40.138Z,1006.55
2018-07-14T10:38:40.145Z,1006.58
2018-07-14T10:39:40.144Z,1006.56
2018-07-14T10:40:40.106Z,1006.53
2018-07-14T10:41:40.096Z,1006.56
2018-07-14T10:42:40.085Z,1006.54
2018-07-14T10:43:40.079Z,1006.53
2018-07-14T10:44:40.069Z,1006.50
2018-07-14T10:45:40.054Z,1006.49
2018-07-14T10:46:40.081Z,1006.47
2018-07-14T10:47:40.035Z,1006.49
2018-07-14T10:48:40.025Z,1006.52
2018-07-14T10:49:40.014Z,1006.56
2018-07-14T10:50:40.003Z,1006.53
2018-07-14T10:51:40.067Z,1006.55
2018-07-14T10:52:39.981Z,1006.58
2018-07-14T10:53:39.978Z,1006.61
2018-07-14T10:54:39.979Z,1006.59
2018-07-14T10:55:39.960Z,1006.58
2018-07-14T10:56:39.936Z,1006.54
2018-07-14T10:57:39.931Z,1006.59
2018-07-14T10:58:39.923Z,1006.53
2018-07-14T10:59:39.910Z,1006.54
2018-07-14T11:00:39.906Z,1006.60
2018-07-14T11:01:39.888Z,1006.62
2018-07-14T11:02:39.887Z,1006.58
2018-07-14T11:03:39.899Z,1006.59
2018-07-14T11:04:39.873Z,1006.56
2018-07-14T11:05:39.938Z,1006.59
2018-07-14T11:06:39.842Z,1006.53
2018-07-14T11:07:39.832Z,1006.62
2018-07-14T11:08:39.821Z,1006.59
2018-07-14T11:09:39.824Z,1006.60
2018-07-14T11:10:39.805Z,1006.59
2018-07-14T11:11:39.790Z,1006.59
2018-07-14T11:12:39.782Z,1006.54
2018-07-14T11:13:39.767Z,1006.52
2018-07-14T11:14:39.769Z,1006.52
2018-07-14T11:15:39.751Z,1006.52
2018-07-14T11:16:39.745Z,1006.52
2018-07-14T11:17:39.735Z,1006.53
2018-07-14T11:18:39.728Z,1006.45
2018-07-14T11:19:39.714Z,1006.38
2018-07-14T11:20:39.713Z,1006.36
2018-07-14T11:21:39.751Z,1006.39
2018-07-14T11:22:39.689Z,1006.40
2018-07-14T11:23:39.699Z,1006.37
2018-07-14T11:24:39.664Z,1006.42
2018-07-14T11:25:39.678Z,1006.40
2018-07-14T11:26:39.650Z,1006.38
2018-07-14T11:27:39.646Z,1006.39
2018-07-14T11:28:39.633Z,1006.40
2018-07-14T11:29:39.628Z,1006.45
2018-07-14T11:30:39.608Z,1006.39
2018-07-14T11:31:39.667Z,1006.42
2018-07-14T11:32:39.590Z,1006.36
2018-07-14T11:33:39.599Z,1006.40
2018-07-14T11:34:39.638Z,1006.38
2018-07-14T11:35:39.570Z,1006.38
2018-07-14T11:36:39.570Z,1006.37
2018-07-14T11:37:39.579Z,1006.37
2018-07-14T11:38:39.537Z,1006.32
2018-07-14T11:39:39.585Z,1006.34
2018-07-14T11:40:39.594Z,1006.25
2018-07-14T11:41:39.514Z,1006.26
2018-07-14T11:42:39.496Z,1006.27
2018-07-14T11:43:39.497Z,1006.26
2018-07-14T11:44:39.484Z,1006.23
2018-07-14T11:45:39.482Z,1006.21
2018-07-14T11:46:39.470Z,1006.22
2018-07-14T11:47:39.468Z,1006.17
2018-07-14T11:48:39.457Z,1006.17
2018-07-14T11:49:39.439Z,1006.17
2018-07-14T11:50:39.425Z,1006.17
2018-07-14T11:51:39.436Z,1006.17
2018-07-14T11:52:39.477Z,1006.17
2018-07-14T11:53:39.424Z,1006.13
2018-07-14T11:54:39.396Z,1006.12
2018-07-14T11:55:39.391Z,1006.13
2018-07-14T11:56:39.375Z,1006.14
2018-07-14T11:57:39.387Z,1006.07
2018-07-14T11:58:39.353Z,1006.06
2018-07-14T11:59:39.344Z,1006.04
2018-07-14T12:00:39.356Z,1006.10
2018-07-14T12:01:39.343Z,1006.07
2018-07-14T12:02:39.321Z,1006.07
2018-07-14T12:03:39.345Z,1006.07
2018-07-14T12:04:39.322Z,1006.05
2018-07-14T12:05:39.295Z,1006.04
2018-07-14T12:06:39.291Z,1006.09
2018-07-14T12:07:39.282Z,1006.05
2018-07-14T12:08:39.270Z,1006.01
2018-07-14T12:09:39.260Z,1005.99